Latest Coastal Weather Observations for Milingimbi

IDD60701

Issued at 12:01 pm CST Thursday 27 July 2017 (issued every 10 minutes, with the page automatically refreshed every 10 minutes)

About coastal observations | Map of coastal stations | Coastal observations for NT | Marine services | Other Formats
Station Details ID: 014404 Name: MILINGIMBI AIRPORT Lat: -12.09 Lon: 134.89 Height: 15.0 m
Data from the previous 72 hours. | See also: Recent months at Milingimbi
Date/Time
CST
Temp
°C
Wind Pressure Rain since
9am
mm
Weather Cloud Vis
km
Sea
Height
m
Swell
Dir  Spd
kts
Gust
kts
hPa Trend Height
m
Period
s
Dir
27/12:00pm 29.5 ESE 12 18 1014.6 - 0.0 - - - - - - -
27/11:30am 29.3 ESE 13 19 1015.2 - 0.0 - - - - - - -
27/11:00am 28.3 SE 12 16 1015.7 - 0.0 - - - - - - -
27/10:30am 27.6 ESE 12 17 1015.8 - 0.0 - - - - - - -
27/10:00am 26.8 ESE 12 18 1015.9 - 0.0 - - - - - - -
27/09:30am 25.8 ESE 11 16 1015.9 - 0.0 - - - - - - -
27/09:00am 24.5 SE 9 13 1015.8 - 0.0 - - - - - - -
27/08:30am 22.7 SSE 7 9 1015.6 - 0.0 - - - - - - -
27/08:00am 20.9 SSE 6 9 1015.2 - 0.0 - - - - - - -
27/07:30am 20.3 SSE 5 7 1014.7 - 0.0 - - - - - - -
27/07:00am 19.9 SSE 6 7 1014.3 - 0.0 - - - - - - -
27/06:30am 19.7 SSE 6 8 1014.0 - 0.0 - - - - - - -
27/06:00am 19.7 SSE 6 8 1013.8 - 0.0 - - - - - - -
27/05:30am 19.3 S 4 5 1013.9 - 0.0 - - - - - - -
27/05:00am 19.9 S 4 5 1013.7 - 0.0 - - - - - - -
27/04:30am 20.0 S 4 6 1013.4 - 0.0 - - - - - - -
27/04:00am 20.4 S 3 4 1013.2 - 0.0 - - - - - - -
27/03:30am 21.8 S 5 7 1013.2 - 0.0 - - - - - - -
27/03:00am 22.8 ESE 6 9 1013.5 - 0.0 - - - - - - -
27/02:30am 23.0 ESE 7 11 1013.6 - 0.0 - - - - - - -
27/02:00am 23.1 E 7 11 1013.9 - 0.0 - - - - - - -
27/01:30am 23.3 ESE 9 11 1014.2 - 0.0 - - - - - - -
27/01:00am 23.7 ESE 10 15 1014.4 - 0.0 - - - - - - -
27/12:30am 23.9 ESE 10 16 1014.6 - 0.0 - - - - - - -
27/12:00am 24.1 ESE 9 13 1014.7 - 0.0 - - - - - - -
 
Date/Time
CST
Temp
°C
Wind Pressure Rain since
9am
mm
Weather Cloud Vis
km
Sea
Height
m
Swell
Dir  Spd
kts
Gust
kts
hPa Trend Height
m
Period
s
Dir
26/11:30pm 24.5 ESE 10 16 1014.9 - 0.0 - - - - - - -
26/11:00pm 24.9 ESE 11 18 1015.0 - 0.0 - - - - - - -
26/10:30pm 25.3 ESE 12 17 1015.1 - 0.0 - - - - - - -
26/10:00pm 25.6 ESE 9 16 1015.1 - 0.0 - - - - - - -
26/09:30pm 26.0 ESE 10 14 1015.0 - 0.0 - - - - - - -
26/09:00pm 26.5 ESE 11 17 1014.5 - 0.0 - - - - - - -
26/08:30pm 26.7 ESE 8 12 1014.1 - 0.0 - - - - - - -
26/08:00pm 27.1 ESE 10 15 1013.7 - 0.0 - - - - - - -
26/07:30pm 27.8 ESE 10 15 1013.3 - 0.0 - - - - - - -
26/07:00pm 27.6 ESE 9 14 1012.8 - 0.0 - - - - - - -
26/06:30pm 26.7 ENE 5 8 1012.5 - 0.0 - - - - - - -
26/06:00pm 27.1 ENE 6 9 1012.0 - 0.0 - - - - - - -
26/05:30pm 28.0 ENE 7 11 1012.0 - 0.0 - - - - - - -
26/05:00pm 28.2 ENE 7 13 1011.9 - 0.0 - - - - - - -
26/04:30pm 28.9 ENE 8 14 1011.7 - 0.0 - - - - - - -
26/04:00pm 29.1 ENE 7 13 1011.6 - 0.0 - - - - - - -
26/03:30pm 29.6 ENE 7 13 1011.6 - 0.0 - - - - - - -
26/03:00pm 29.2 ENE 10 16 1011.7 - 0.0 - - - - - - -
26/02:30pm 29.3 ENE 10 14 1012.2 - 0.0 - - - - - - -
26/02:00pm 29.8 ENE 8 14 1012.6 - 0.0 - - - - - - -
26/01:30pm 29.1 NE 10 14 1013.1 - 0.0 - - - - - - -
26/01:00pm 29.2 E 7 11 1013.5 - 0.0 - - - - - - -
26/12:30pm 29.0 E 9 15 1013.9 - 0.0 - - - - - - -
26/12:00pm 29.0 ESE 10 15 1014.3 - 0.0 - - - - - - -
26/11:30am 28.6 ESE 10 16 1014.6 - 0.0 - - - - - - -
26/11:00am 27.1 ESE 12 18 1015.0 - 0.0 - - - - - - -
26/10:30am 27.0 ESE 12 18 1015.1 - 0.0 - - - - - - -
26/10:00am 26.8 ESE 11 15 1015.2 - 0.0 - - - - - - -
26/09:30am 26.0 ESE 11 15 1015.2 - 0.0 - - - - - - -
26/09:00am 25.8 SE 11 15 1015.0 - 0.0 - - - - - - -
26/08:30am 25.6 SE 10 13 1014.9 - 0.0 - - - - - - -
26/08:00am 23.3 ESE 8 12 1014.6 - 0.0 - - - - - - -
26/07:30am 21.5 ESE 4 5 1014.3 - 0.0 - - - - - - -
26/07:00am 20.8 SE 3 5 1014.0 - 0.0 - - - - - - -
26/06:30am 20.9 E 3 4 1013.8 - 0.0 - - - - - - -
26/06:00am 21.0 SE 4 5 1013.4 - 0.0 - - - - - - -
26/05:30am 21.1 SSE 5 6 1013.3 - 0.0 - - - - - - -
26/05:00am 21.3 SSE 5 6 1013.1 - 0.0 - - - - - - -
26/04:30am 21.5 SE 5 7 1013.1 - 0.0 - - - - - - -
26/04:00am 21.7 SE 5 7 1013.2 - 0.0 - - - - - - -
26/03:30am 21.9 SE 6 8 1013.3 - 0.0 - - - - - - -
26/03:00am 22.1 SSE 6 9 1013.5 - 0.0 - - - - - - -
26/02:30am 22.2 SSE 5 7 1013.7 - 0.0 - - - - - - -
26/02:00am 22.6 SE 6 8 1013.8 - 0.0 - - - - - - -
26/01:30am 22.9 SE 7 8 1013.9 - 0.0 - - - - - - -
26/01:00am 23.2 SE 6 8 1014.1 - 0.0 - - - - - - -
26/12:30am 23.6 SE 8 10 1014.2 - 0.0 - - - - - - -
26/12:00am 24.0 SE 7 9 1014.2 - 0.0 - - - - - - -
 
Date/Time
CST
Temp
°C
Wind Pressure Rain since
9am
mm
Weather Cloud Vis
km
Sea
Height
m
Swell
Dir  Spd
kts
Gust
kts
hPa Trend Height
m
Period
s
Dir
25/11:30pm 24.7 SE 10 14 1014.4 - 0.0 - - - - - - -
25/11:00pm 25.1 ESE 11 16 1014.3 - 0.0 - - - - - - -
25/10:30pm 25.5 ESE 11 15 1014.4 - 0.0 - - - - - - -
25/10:00pm 25.8 ESE 11 15 1014.3 - 0.0 - - - - - - -
25/09:30pm 25.9 E 9 15 1014.3 - 0.0 - - - - - - -
25/09:00pm 26.3 E 9 16 1014.0 - 0.0 - - - - - - -
25/08:30pm 26.3 E 8 13 1013.7 - 0.0 - - - - - - -
25/08:00pm 26.1 E 7 11 1013.2 - 0.0 - - - - - - -
25/07:30pm 26.0 ENE 8 13 1012.8 - 0.0 - - - - - - -
25/07:00pm 26.0 ENE 8 11 1012.4 - 0.0 - - - - - - -
25/06:30pm 26.0 NE 6 10 1012.2 - 0.0 - - - - - - -
25/06:00pm 26.4 ENE 7 13 1011.8 - 0.0 - - - - - - -
25/05:30pm 26.6 NE 6 10 1011.8 - 0.0 - - - - - - -
25/05:00pm 27.0 NNE 5 8 1011.7 - 0.0 - - - - - - -
25/04:30pm 27.8 NE 8 15 1011.6 - 0.0 - - - - - - -
25/04:00pm 28.9 NE 8 14 1011.5 - 0.0 - - - - - - -
25/03:30pm 28.9 ENE 9 15 1011.5 - 0.0 - - - - - - -
25/03:00pm 29.5 ENE 9 17 1011.6 - 0.0 - - - - - - -
25/02:30pm 30.1 ENE 9 15 1012.0 - 0.0 - - - - - - -
25/02:00pm 29.5 NE 9 14 1012.4 - 0.0 - - - - - - -
25/01:30pm 30.2 ENE 7 13 1012.8 - 0.0 - - - - - - -
25/01:00pm 29.2 E 7 13 1013.4 - 0.0 - - - - - - -
25/12:30pm 29.8 E 8 13 1013.8 - 0.0 - - - - - - -
25/12:00pm 29.5 ESE 8 12 1014.1 - 0.0 - - - - - - -
25/11:30am 28.8 ESE 9 13 1014.5 - 0.0 - - - - - - -
25/11:00am 27.8 ESE 10 17 1014.8 - 0.0 - - - - - - -
25/10:30am 27.1 ESE 10 15 1014.9 - 0.0 - - - - - - -
25/10:00am 26.5 SE 9 14 1015.1 - 0.0 - - - - - - -
25/09:30am 25.7 ESE 9 13 1015.2 - 0.0 - - - - - - -
25/09:00am 24.4 ESE 8 12 1015.0 - 0.0 - - - - - - -
25/08:30am 23.4 SE 8 11 1014.9 - 0.0 - - - - - - -
25/08:00am 22.6 SE 6 8 1014.6 - 0.0 - - - - - - -
25/07:30am 21.5 SSE 6 7 1014.2 - 0.0 - - - - - - -
25/07:00am 21.3 SSE 6 9 1014.0 - 0.0 - - - - - - -
25/06:30am 21.2 SE 6 8 1013.7 - 0.0 - - - - - - -
25/06:00am 21.4 SE 5 7 1013.4 - 0.0 - - - - - - -
25/05:30am 21.7 SE 5 7 1013.4 - 0.0 - - - - - - -
25/05:00am 21.9 SE 6 9 1013.3 - 0.0 - - - - - - -
25/04:30am 22.1 SE 6 8 1013.3 - 0.0 - - - - - - -
25/04:00am 22.1 SE 7 8 1013.3 - 0.0 - - - - - - -
25/03:30am 22.3 SE 7 10 1013.4 - 0.0 - - - - - - -
25/03:00am 22.4 ESE 6 8 1013.5 - 0.0 - - - - - - -
25/02:30am 22.5 SE 7 9 1013.6 - 0.0 - - - - - - -
25/02:00am 22.6 SE 6 8 1013.6 - 0.0 - - - - - - -
25/01:30am 23.1 SSE 5 7 1013.8 - 0.0 - - - - - - -
25/01:00am 23.9 SSE 7 9 1014.0 - 0.0 - - - - - - -
25/12:30am 24.4 SE 8 11 1014.3 - 0.0 - - - - - - -
25/12:00am 24.7 SE 9 12 1014.4 - 0.0 - - - - - - -
 
Date/Time
CST
Temp
°C
Wind Pressure Rain since
9am
mm
Weather Cloud Vis
km
Sea
Height
m
Swell
Dir  Spd
kts
Gust
kts
hPa Trend Height
m
Period
s
Dir
24/11:30pm 25.0 ESE 8 11 1014.8 - 0.0 - - - - - - -
24/11:00pm 25.2 ESE 7 11 1015.0 - 0.0 - - - - - - -
24/10:30pm 25.6 ESE 9 13 1014.8 - 0.0 - - - - - - -
24/10:00pm 25.9 ESE 9 15 1014.7 - 0.0 - - - - - - -
24/09:30pm 25.9 E 6 11 1014.4 - 0.0 - - - - - - -
24/09:00pm 25.6 ESE 3 5 1013.8 - 0.0 - - - - - - -
24/08:30pm 25.6 ESE 4 5 1013.5 - 0.0 - - - - - - -
24/08:00pm 25.8 E 4 6 1013.1 - 0.0 - - - - - - -
24/07:30pm 26.0 ENE 2 4 1012.6 - 0.0 - - - - - - -
24/07:00pm 26.5 ENE 4 7 1012.3 - 0.0 - - - - - - -
24/06:30pm 26.6 ENE 5 8 1012.2 - 0.0 - - - - - - -
24/06:00pm 27.0 ENE 6 12 1011.7 - 0.0 - - - - - - -
24/05:30pm 27.7 NE 7 11 1011.5 - 0.0 - - - - - - -
24/05:00pm 28.4 ENE 7 10 1011.1 - 0.0 - - - - - - -
24/04:30pm 28.3 NE 8 12 1011.0 - 0.0 - - - - - - -
24/04:00pm 30.2 NE 7 11 1010.8 - 0.0 - - - - - - -
24/03:30pm 31.1 E 8 13 1010.7 - 0.0 - - - - - - -
24/03:00pm 30.7 E 10 15 1010.8 - 0.0 - - - - - - -
24/02:30pm 31.0 E 11 16 1011.1 - 0.0 - - - - - - -
24/02:00pm 31.2 ESE 10 15 1011.6 - 0.0 - - - - - - -
24/01:30pm 30.8 E 8 11 1012.2 - 0.0 - - - - - - -
24/01:00pm 30.8 ESE 11 16 1012.6 - 0.0 - - - - - - -
24/12:30pm 30.6 ESE 12 16 1012.9 - 0.0 - - - - - - -

Other Formats:

Comma delimited format used in spreadsheet applications
http://www.bom.gov.au/fwo/IDD60701/IDD60701.94140.axf

JavaScript Object Notation format (JSON) in row-major order
http://www.bom.gov.au/fwo/IDD60701/IDD60701.94140.json